EDT,Max TemperatureF,Mean TemperatureF,Min TemperatureF,Max Dew PointF,MeanDew PointF,Min DewpointF,Max Humidity, Mean Humidity, Min Humidity, Max Sea Level PressureIn, Mean Sea Level PressureIn, Min Sea Level PressureIn, Max VisibilityMiles, Mean VisibilityMiles, Min VisibilityMiles, Max Wind SpeedMPH, Mean Wind SpeedMPH, Max Gust SpeedMPH,PrecipitationIn, CloudCover, Events, WindDirDegrees
2012-9-1,95,84,73,79,73,70,96,79,46,30.15,30.09,30.01,10,10,2,8,6,,0.00,1,Thunderstorm,257
2012-9-2,93,82,73,76,73,71,94,79,54,30.05,30.02,29.96,10,10,10,10,3,18,0.00,1,Thunderstorm,142
2012-9-3,87,80,73,77,73,70,96,83,63,30.09,30.04,29.98,10,10,4,12,4,,0.04,4,Rain-Thunderstorm,137
2012-9-4,88,80,73,74,72,68,97,79,57,30.07,30.03,29.98,10,9,2,13,3,18,0.00,1,,183
2012-9-5,90,81,73,74,72,70,91,76,53,30.00,29.96,29.91,10,10,10,14,6,18,0.01,2,,217
2012-9-6,91,80,71,75,72,70,94,80,55,29.99,29.95,29.90,10,8,0,23,8,26,0.00,2,Fog-Rain-Thunderstorm,222
2012-9-7,86,78,73,75,72,70,94,86,70,29.99,29.93,29.89,10,9,2,8,4,,0.00,4,Thunderstorm,153
2012-9-8,88,80,72,76,73,70,97,84,59,29.89,29.84,29.77,10,10,4,16,6,22,0.16,3,Rain-Thunderstorm,201
2012-9-9,79,74,69,70,66,60,94,81,56,29.90,29.84,29.80,10,10,10,14,6,,0.01,7,,360
2012-9-10,80,69,59,57,55,52,93,63,40,30.18,30.07,29.97,10,10,10,12,5,17,0.00,0,,350
2012-9-11,80,67,55,57,54,49,93,75,35,30.30,30.23,30.17,10,10,10,12,2,18,0.00,0,,19
2012-9-12,80,68,57,60,57,55,93,67,47,30.35,30.32,30.29,10,10,9,12,7,16,0.00,0,,50
2012-9-13,84,71,60,66,62,57,90,69,49,30.33,30.27,30.23,10,10,8,14,6,21,0.00,1,,33
2012-9-14,86,75,66,69,67,64,94,82,55,30.24,30.19,30.14,10,10,9,10,4,,0.02,3,Rain-Thunderstorm,19
2012-9-15,86,75,64,68,65,61,100,84,44,30.18,30.14,30.09,10,5,0,8,2,,0.01,3,Fog,2
2012-9-16,80,74,68,66,62,58,84,70,54,30.17,30.14,30.09,10,10,10,8,5,,0.00,6,Rain,69
2012-9-17,82,75,68,71,67,63,90,77,58,30.12,30.07,30.01,10,10,7,13,5,,0.00,4,,130
2012-9-18,84,76,71,74,71,69,94,83,65,29.91,29.85,29.79,10,8,2,18,12,38,0.30,6,Rain-Thunderstorm,197
2012-9-19,75,70,64,71,63,57,94,80,68,30.11,30.00,29.86,10,10,10,15,8,22,0.00,5,,352
2012-9-20,79,71,64,62,59,56,87,68,50,30.14,30.10,30.06,10,10,10,9,7,,0.00,5,,4
2012-9-21,82,70,60,63,60,57,97,76,44,30.11,30.07,30.04,10,10,3,9,2,,0.01,1,,79
2012-9-22,82,70,60,66,63,58,97,79,56,30.06,30.02,29.97,10,10,9,13,2,17,0.00,0,,204
2012-9-23,80,73,63,67,61,55,90,71,48,30.13,30.05,29.99,10,10,8,13,7,18,0.00,1,,1
2012-9-24,75,64,53,55,50,45,93,61,36,30.22,30.18,30.12,10,10,10,10,6,,0.01,0,,46
2012-9-25,79,64,50,61,54,48,93,72,38,30.28,30.24,30.20,10,10,9,10,2,,0.00,1,,144
2012-9-26,82,69,57,63,59,55,93,75,45,30.26,30.22,30.19,10,10,8,8,2,,0.01,0,,128
2012-9-27,84,70,57,64,61,56,97,77,44,30.23,30.17,30.12,10,10,7,12,2,,0.00,0,,194
2012-9-28,84,70,57,67,61,55,100,85,56,30.13,30.09,30.01,10,6,0,8,1,,0.01,2,Fog,215
2012-9-29,77,70,66,68,66,64,97,87,71,30.01,29.94,29.88,10,8,2,9,5,,0.02,4,Rain-Thunderstorm,37
2012-9-30,71,66,62,65,62,59,96,85,73,29.94,29.90,29.87,10,9,3,9,5,,0.04,7,Rain,356